sensor_id;sensor_type;location;lat;lon;timestamp;temperature;humidity
8463;DHT22;4268;52.506;13.462;2023-05-07T00:00:19;8.80;99.90
8463;DHT22;4268;52.506;13.462;2023-05-07T00:02:45;8.90;99.90
8463;DHT22;4268;52.506;13.462;2023-05-07T00:05:11;8.80;99.90
8463;DHT22;4268;52.506;13.462;2023-05-07T00:07:36;8.90;99.90
8463;DHT22;4268;52.506;13.462;2023-05-07T00:10:03;7.90;99.90
8463;DHT22;4268;52.506;13.462;2023-05-07T00:12:29;8.90;99.90
8463;DHT22;4268;52.506;13.462;2023-05-07T00:14:57;8.90;99.90
8463;DHT22;4268;52.506;13.462;2023-05-07T00:17:23;8.90;99.90
8463;DHT22;4268;52.506;13.462;2023-05-07T00:19:48;8.90;99.90
8463;DHT22;4268;52.506;13.462;2023-05-07T00:22:14;8.90;99.90
8463;DHT22;4268;52.506;13.462;2023-05-07T00:24:39;8.90;99.90
8463;DHT22;4268;52.506;13.462;2023-05-07T00:27:05;8.90;99.90
8463;DHT22;4268;52.506;13.462;2023-05-07T00:29:30;8.90;99.90
8463;DHT22;4268;52.506;13.462;2023-05-07T00:31:56;8.60;99.90
8463;DHT22;4268;52.506;13.462;2023-05-07T00:34:22;8.90;99.90
8463;DHT22;4268;52.506;13.462;2023-05-07T00:36:48;8.90;99.90
8463;DHT22;4268;52.506;13.462;2023-05-07T00:39:13;8.80;99.90
8463;DHT22;4268;52.506;13.462;2023-05-07T00:41:39;8.80;99.90
8463;DHT22;4268;52.506;13.462;2023-05-07T00:44:04;8.80;99.90
8463;DHT22;4268;52.506;13.462;2023-05-07T00:46:30;8.60;99.90
8463;DHT22;4268;52.506;13.462;2023-05-07T00:48:56;8.70;99.90
8463;DHT22;4268;52.506;13.462;2023-05-07T00:51:23;8.70;99.90
8463;DHT22;4268;52.506;13.462;2023-05-07T00:53:53;8.70;99.90
8463;DHT22;4268;52.506;13.462;2023-05-07T00:56:21;8.70;99.90
8463;DHT22;4268;52.506;13.462;2023-05-07T00:58:47;8.70;99.90
8463;DHT22;4268;52.506;13.462;2023-05-07T01:01:13;8.70;99.90
8463;DHT22;4268;52.506;13.462;2023-05-07T01:03:41;8.90;99.90
8463;DHT22;4268;52.506;13.462;2023-05-07T01:06:07;7.90;99.90
8463;DHT22;4268;52.506;13.462;2023-05-07T01:08:34;8.70;99.90
8463;DHT22;4268;52.506;13.462;2023-05-07T01:11:00;8.70;99.90
8463;DHT22;4268;52.506;13.462;2023-05-07T01:13:27;8.70;99.90
8463;DHT22;4268;52.506;13.462;2023-05-07T01:15:52;8.80;99.90
8463;DHT22;4268;52.506;13.462;2023-05-07T01:18:18;8.70;99.90
8463;DHT22;4268;52.506;13.462;2023-05-07T01:20:43;8.70;99.90
8463;DHT22;4268;52.506;13.462;2023-05-07T01:23:11;8.70;99.90
8463;DHT22;4268;52.506;13.462;2023-05-07T01:25:38;8.80;99.90
8463;DHT22;4268;52.506;13.462;2023-05-07T01:28:03;8.80;99.90
8463;DHT22;4268;52.506;13.462;2023-05-07T01:30:29;8.80;99.90
8463;DHT22;4268;52.506;13.462;2023-05-07T01:33:06;8.80;99.90
8463;DHT22;4268;52.506;13.462;2023-05-07T01:35:41;8.80;99.90
8463;DHT22;4268;52.506;13.462;2023-05-07T01:38:09;9.90;99.90
8463;DHT22;4268;52.506;13.462;2023-05-07T01:40:34;8.80;99.90
8463;DHT22;4268;52.506;13.462;2023-05-07T01:43:02;7.60;99.90
8463;DHT22;4268;52.506;13.462;2023-05-07T01:45:28;8.80;99.90
8463;DHT22;4268;52.506;13.462;2023-05-07T01:47:54;8.80;99.90
8463;DHT22;4268;52.506;13.462;2023-05-07T01:50:20;8.60;99.90
8463;DHT22;4268;52.506;13.462;2023-05-07T01:52:47;8.80;99.90
8463;DHT22;4268;52.506;13.462;2023-05-07T01:55:13;8.80;99.90
8463;DHT22;4268;52.506;13.462;2023-05-07T01:57:38;8.80;99.90
8463;DHT22;4268;52.506;13.462;2023-05-07T02:00:04;8.80;99.90
8463;DHT22;4268;52.506;13.462;2023-05-07T02:02:31;8.80;99.90
8463;DHT22;4268;52.506;13.462;2023-05-07T02:04:59;8.80;99.90
8463;DHT22;4268;52.506;13.462;2023-05-07T02:07:24;8.80;99.90
8463;DHT22;4268;52.506;13.462;2023-05-07T02:09:50;8.80;99.90
8463;DHT22;4268;52.506;13.462;2023-05-07T02:12:15;8.80;99.90
8463;DHT22;4268;52.506;13.462;2023-05-07T02:14:41;8.80;99.90
8463;DHT22;4268;52.506;13.462;2023-05-07T02:17:07;8.80;99.90
8463;DHT22;4268;52.506;13.462;2023-05-07T02:19:33;8.80;99.90
8463;DHT22;4268;52.506;13.462;2023-05-07T02:21:58;8.90;99.90
8463;DHT22;4268;52.506;13.462;2023-05-07T02:24:24;8.90;99.90
8463;DHT22;4268;52.506;13.462;2023-05-07T02:26:49;8.70;99.90
8463;DHT22;4268;52.506;13.462;2023-05-07T02:29:15;8.90;99.90
8463;DHT22;4268;52.506;13.462;2023-05-07T02:31:40;8.80;99.90
8463;DHT22;4268;52.506;13.462;2023-05-07T02:34:06;9.00;99.90
8463;DHT22;4268;52.506;13.462;2023-05-07T02:36:31;8.80;99.90
8463;DHT22;4268;52.506;13.462;2023-05-07T02:38:56;7.90;99.90
8463;DHT22;4268;52.506;13.462;2023-05-07T02:41:22;8.80;99.90
8463;DHT22;4268;52.506;13.462;2023-05-07T02:43:47;8.80;99.90
8463;DHT22;4268;52.506;13.462;2023-05-07T02:46:13;8.80;99.90
8463;DHT22;4268;52.506;13.462;2023-05-07T02:48:38;8.90;99.90
8463;DHT22;4268;52.506;13.462;2023-05-07T02:51:04;8.80;99.90
8463;DHT22;4268;52.506;13.462;2023-05-07T02:53:30;8.80;99.90
8463;DHT22;4268;52.506;13.462;2023-05-07T02:55:57;8.80;99.90
8463;DHT22;4268;52.506;13.462;2023-05-07T02:58:23;8.80;99.90
8463;DHT22;4268;52.506;13.462;2023-05-07T03:00:48;10.00;99.90
8463;DHT22;4268;52.506;13.462;2023-05-07T03:03:14;8.80;99.90
8463;DHT22;4268;52.506;13.462;2023-05-07T03:05:40;8.90;99.90
8463;DHT22;4268;52.506;13.462;2023-05-07T03:08:06;8.80;99.90
8463;DHT22;4268;52.506;13.462;2023-05-07T03:10:32;8.80;99.90
8463;DHT22;4268;52.506;13.462;2023-05-07T03:12:57;8.80;99.90
8463;DHT22;4268;52.506;13.462;2023-05-07T03:15:23;9.40;99.90
8463;DHT22;4268;52.506;13.462;2023-05-07T03:17:48;8.80;99.90
8463;DHT22;4268;52.506;13.462;2023-05-07T03:20:14;8.80;99.90
8463;DHT22;4268;52.506;13.462;2023-05-07T03:22:40;8.80;99.90
8463;DHT22;4268;52.506;13.462;2023-05-07T03:25:06;8.90;99.90
8463;DHT22;4268;52.506;13.462;2023-05-07T03:27:32;8.80;99.90
8463;DHT22;4268;52.506;13.462;2023-05-07T03:29:57;8.80;99.90
8463;DHT22;4268;52.506;13.462;2023-05-07T03:32:23;8.80;99.90
8463;DHT22;4268;52.506;13.462;2023-05-07T03:34:48;8.70;99.90
8463;DHT22;4268;52.506;13.462;2023-05-07T03:37:14;8.80;99.90
8463;DHT22;4268;52.506;13.462;2023-05-07T03:39:39;8.80;99.90
8463;DHT22;4268;52.506;13.462;2023-05-07T03:42:05;8.70;99.90
8463;DHT22;4268;52.506;13.462;2023-05-07T03:44:30;8.70;99.90
8463;DHT22;4268;52.506;13.462;2023-05-07T03:46:56;7.90;99.90
8463;DHT22;4268;52.506;13.462;2023-05-07T03:49:21;8.70;99.90
8463;DHT22;4268;52.506;13.462;2023-05-07T03:51:47;8.70;99.90
8463;DHT22;4268;52.506;13.462;2023-05-07T03:54:12;8.60;99.90
8463;DHT22;4268;52.506;13.462;2023-05-07T03:56:38;8.60;99.90
8463;DHT22;4268;52.506;13.462;2023-05-07T03:59:03;8.60;99.90
8463;DHT22;4268;52.506;13.462;2023-05-07T04:01:29;8.50;99.90
8463;DHT22;4268;52.506;13.462;2023-05-07T04:03:55;8.60;99.90
8463;DHT22;4268;52.506;13.462;2023-05-07T04:06:20;8.60;99.90
8463;DHT22;4268;52.506;13.462;2023-05-07T04:08:46;8.50;99.90
8463;DHT22;4268;52.506;13.462;2023-05-07T04:11:11;8.60;99.90
8463;DHT22;4268;52.506;13.462;2023-05-07T04:13:36;8.60;99.90
8463;DHT22;4268;52.506;13.462;2023-05-07T04:18:29;8.60;99.90
8463;DHT22;4268;52.506;13.462;2023-05-07T04:20:54;8.60;99.90
8463;DHT22;4268;52.506;13.462;2023-05-07T04:23:20;8.60;99.90
8463;DHT22;4268;52.506;13.462;2023-05-07T04:25:46;8.60;99.90
8463;DHT22;4268;52.506;13.462;2023-05-07T04:28:11;8.60;99.90
8463;DHT22;4268;52.506;13.462;2023-05-07T04:30:38;8.60;99.90
8463;DHT22;4268;52.506;13.462;2023-05-07T04:33:03;8.70;99.90
8463;DHT22;4268;52.506;13.462;2023-05-07T04:35:29;8.70;99.90
8463;DHT22;4268;52.506;13.462;2023-05-07T04:37:54;8.80;99.90
8463;DHT22;4268;52.506;13.462;2023-05-07T04:40:20;8.70;99.90
8463;DHT22;4268;52.506;13.462;2023-05-07T04:42:46;8.80;99.90
8463;DHT22;4268;52.506;13.462;2023-05-07T04:45:11;8.80;99.90
8463;DHT22;4268;52.506;13.462;2023-05-07T04:47:38;8.80;99.90
8463;DHT22;4268;52.506;13.462;2023-05-07T04:50:04;8.80;99.90
8463;DHT22;4268;52.506;13.462;2023-05-07T04:52:30;8.80;99.90
8463;DHT22;4268;52.506;13.462;2023-05-07T04:54:56;8.80;99.90
8463;DHT22;4268;52.506;13.462;2023-05-07T04:57:22;8.90;99.90
8463;DHT22;4268;52.506;13.462;2023-05-07T04:59:47;9.00;99.90
8463;DHT22;4268;52.506;13.462;2023-05-07T05:02:12;9.00;99.90
8463;DHT22;4268;52.506;13.462;2023-05-07T05:04:38;9.00;99.90
8463;DHT22;4268;52.506;13.462;2023-05-07T05:07:03;9.10;99.90
8463;DHT22;4268;52.506;13.462;2023-05-07T05:09:30;9.20;99.90
8463;DHT22;4268;52.506;13.462;2023-05-07T05:11:56;9.30;99.90
8463;DHT22;4268;52.506;13.462;2023-05-07T05:14:21;10.50;99.90
8463;DHT22;4268;52.506;13.462;2023-05-07T05:16:47;9.40;99.90
8463;DHT22;4268;52.506;13.462;2023-05-07T05:19:12;9.40;99.90
8463;DHT22;4268;52.506;13.462;2023-05-07T05:21:38;9.30;99.90
8463;DHT22;4268;52.506;13.462;2023-05-07T05:24:03;9.30;99.90
8463;DHT22;4268;52.506;13.462;2023-05-07T05:26:29;9.30;99.90
8463;DHT22;4268;52.506;13.462;2023-05-07T05:28:54;9.30;99.90
8463;DHT22;4268;52.506;13.462;2023-05-07T05:31:20;9.30;99.90
8463;DHT22;4268;52.506;13.462;2023-05-07T05:33:46;9.40;99.90
8463;DHT22;4268;52.506;13.462;2023-05-07T05:36:12;9.50;99.90
8463;DHT22;4268;52.506;13.462;2023-05-07T05:38:38;9.50;99.90
8463;DHT22;4268;52.506;13.462;2023-05-07T05:41:04;9.60;99.90
8463;DHT22;4268;52.506;13.462;2023-05-07T05:43:29;9.60;99.90
8463;DHT22;4268;52.506;13.462;2023-05-07T05:45:56;9.50;99.90
8463;DHT22;4268;52.506;13.462;2023-05-07T05:48:21;9.70;99.90
8463;DHT22;4268;52.506;13.462;2023-05-07T05:50:47;9.60;99.90
8463;DHT22;4268;52.506;13.462;2023-05-07T05:53:12;9.70;99.90
8463;DHT22;4268;52.506;13.462;2023-05-07T05:55:38;10.70;99.90
8463;DHT22;4268;52.506;13.462;2023-05-07T05:58:03;9.50;99.90
8463;DHT22;4268;52.506;13.462;2023-05-07T06:00:29;9.90;99.90
8463;DHT22;4268;52.506;13.462;2023-05-07T06:02:55;10.00;99.90
8463;DHT22;4268;52.506;13.462;2023-05-07T06:05:21;10.10;99.90
8463;DHT22;4268;52.506;13.462;2023-05-07T06:07:49;10.20;99.90
8463;DHT22;4268;52.506;13.462;2023-05-07T06:10:15;10.20;99.90
8463;DHT22;4268;52.506;13.462;2023-05-07T06:12:40;10.40;99.90
8463;DHT22;4268;52.506;13.462;2023-05-07T06:15:06;10.60;99.90
8463;DHT22;4268;52.506;13.462;2023-05-07T06:17:32;10.70;99.90
8463;DHT22;4268;52.506;13.462;2023-05-07T06:19:57;10.60;99.90
8463;DHT22;4268;52.506;13.462;2023-05-07T06:22:23;10.60;99.90
8463;DHT22;4268;52.506;13.462;2023-05-07T06:24:50;10.40;99.90
8463;DHT22;4268;52.506;13.462;2023-05-07T06:27:15;10.30;99.90
8463;DHT22;4268;52.506;13.462;2023-05-07T06:29:41;11.20;99.90
8463;DHT22;4268;52.506;13.462;2023-05-07T06:32:11;10.10;99.90
8463;DHT22;4268;52.506;13.462;2023-05-07T06:34:37;10.40;99.90
8463;DHT22;4268;52.506;13.462;2023-05-07T06:37:03;10.10;99.90
8463;DHT22;4268;52.506;13.462;2023-05-07T06:39:28;10.20;99.90
8463;DHT22;4268;52.506;13.462;2023-05-07T06:41:54;10.30;99.90
8463;DHT22;4268;52.506;13.462;2023-05-07T06:44:19;10.30;99.90
8463;DHT22;4268;52.506;13.462;2023-05-07T06:46:45;10.30;99.90
8463;DHT22;4268;52.506;13.462;2023-05-07T06:49:12;10.50;99.90
8463;DHT22;4268;52.506;13.462;2023-05-07T06:51:37;11.90;99.90
8463;DHT22;4268;52.506;13.462;2023-05-07T06:54:03;11.90;99.90
8463;DHT22;4268;52.506;13.462;2023-05-07T06:56:30;12.30;99.90
8463;DHT22;4268;52.506;13.462;2023-05-07T06:58:56;13.10;99.90
8463;DHT22;4268;52.506;13.462;2023-05-07T07:01:22;14.20;99.90
8463;DHT22;4268;52.506;13.462;2023-05-07T07:03:47;14.40;99.90
8463;DHT22;4268;52.506;13.462;2023-05-07T07:06:13;14.20;99.90
8463;DHT22;4268;52.506;13.462;2023-05-07T07:08:38;14.90;99.90
8463;DHT22;4268;52.506;13.462;2023-05-07T07:11:08;14.30;99.90
8463;DHT22;4268;52.506;13.462;2023-05-07T07:13:34;14.90;99.90
8463;DHT22;4268;52.506;13.462;2023-05-07T07:16:00;15.50;99.90
8463;DHT22;4268;52.506;13.462;2023-05-07T07:18:25;15.70;99.90
8463;DHT22;4268;52.506;13.462;2023-05-07T07:20:51;15.90;99.90
8463;DHT22;4268;52.506;13.462;2023-05-07T07:23:16;15.90;99.90
8463;DHT22;4268;52.506;13.462;2023-05-07T07:25:42;15.50;99.70
8463;DHT22;4268;52.506;13.462;2023-05-07T07:28:07;14.90;99.90
8463;DHT22;4268;52.506;13.462;2023-05-07T07:30:33;14.30;99.90
8463;DHT22;4268;52.506;13.462;2023-05-07T07:32:58;14.30;99.90
8463;DHT22;4268;52.506;13.462;2023-05-07T07:35:32;14.50;99.90
8463;DHT22;4268;52.506;13.462;2023-05-07T07:37:58;14.10;99.90
8463;DHT22;4268;52.506;13.462;2023-05-07T07:40:23;13.80;99.90
8463;DHT22;4268;52.506;13.462;2023-05-07T07:42:50;13.90;99.90
8463;DHT22;4268;52.506;13.462;2023-05-07T07:45:16;14.20;99.90
8463;DHT22;4268;52.506;13.462;2023-05-07T07:47:41;14.40;99.90
8463;DHT22;4268;52.506;13.462;2023-05-07T07:50:07;14.70;99.90
8463;DHT22;4268;52.506;13.462;2023-05-07T07:52:33;14.70;99.90
8463;DHT22;4268;52.506;13.462;2023-05-07T07:54:59;14.80;99.90
8463;DHT22;4268;52.506;13.462;2023-05-07T07:57:24;15.20;99.90
8463;DHT22;4268;52.506;13.462;2023-05-07T07:59:50;15.30;99.80
8463;DHT22;4268;52.506;13.462;2023-05-07T08:02:16;15.30;99.00
8463;DHT22;4268;52.506;13.462;2023-05-07T08:04:42;15.40;98.80
8463;DHT22;4268;52.506;13.462;2023-05-07T08:07:09;15.00;98.60
8463;DHT22;4268;52.506;13.462;2023-05-07T08:09:34;14.90;99.20
8463;DHT22;4268;52.506;13.462;2023-05-07T08:12:00;15.30;98.70
8463;DHT22;4268;52.506;13.462;2023-05-07T08:14:26;15.50;97.90
8463;DHT22;4268;52.506;13.462;2023-05-07T08:16:53;15.10;98.00
8463;DHT22;4268;52.506;13.462;2023-05-07T08:19:19;15.30;98.00
8463;DHT22;4268;52.506;13.462;2023-05-07T08:21:45;15.30;98.00
8463;DHT22;4268;52.506;13.462;2023-05-07T08:24:13;15.50;98.10
8463;DHT22;4268;52.506;13.462;2023-05-07T08:26:38;15.80;97.50
8463;DHT22;4268;52.506;13.462;2023-05-07T08:29:05;15.60;96.90
8463;DHT22;4268;52.506;13.462;2023-05-07T08:31:30;15.10;97.40
8463;DHT22;4268;52.506;13.462;2023-05-07T08:33:57;15.00;97.90
8463;DHT22;4268;52.506;13.462;2023-05-07T08:36:23;15.10;98.50
8463;DHT22;4268;52.506;13.462;2023-05-07T08:38:49;15.40;98.40
8463;DHT22;4268;52.506;13.462;2023-05-07T08:41:15;15.90;97.60
8463;DHT22;4268;52.506;13.462;2023-05-07T08:43:41;16.00;97.00
8463;DHT22;4268;52.506;13.462;2023-05-07T08:46:09;15.30;96.70
8463;DHT22;4268;52.506;13.462;2023-05-07T08:48:35;14.80;97.40
8463;DHT22;4268;52.506;13.462;2023-05-07T08:51:01;14.80;97.90
8463;DHT22;4268;52.506;13.462;2023-05-07T08:53:26;14.80;97.90
8463;DHT22;4268;52.506;13.462;2023-05-07T08:55:53;14.70;98.10
8463;DHT22;4268;52.506;13.462;2023-05-07T08:58:18;14.60;98.20
8463;DHT22;4268;52.506;13.462;2023-05-07T09:00:44;14.60;98.40
8463;DHT22;4268;52.506;13.462;2023-05-07T09:03:09;14.60;98.80
8463;DHT22;4268;52.506;13.462;2023-05-07T09:05:38;14.60;98.60
8463;DHT22;4268;52.506;13.462;2023-05-07T09:08:06;14.40;98.10
8463;DHT22;4268;52.506;13.462;2023-05-07T09:10:33;14.20;98.70
8463;DHT22;4268;52.506;13.462;2023-05-07T09:12:59;13.90;98.90
8463;DHT22;4268;52.506;13.462;2023-05-07T09:15:24;13.90;99.40
8463;DHT22;4268;52.506;13.462;2023-05-07T09:17:50;13.70;99.50
8463;DHT22;4268;52.506;13.462;2023-05-07T09:20:16;13.70;99.70
8463;DHT22;4268;52.506;13.462;2023-05-07T09:22:42;13.90;99.60
8463;DHT22;4268;52.506;13.462;2023-05-07T09:25:09;14.00;99.80
8463;DHT22;4268;52.506;13.462;2023-05-07T09:27:35;14.00;99.90
8463;DHT22;4268;52.506;13.462;2023-05-07T09:30:06;14.20;99.60
8463;DHT22;4268;52.506;13.462;2023-05-07T09:32:35;14.30;99.30
8463;DHT22;4268;52.506;13.462;2023-05-07T09:35:01;14.30;99.00
8463;DHT22;4268;52.506;13.462;2023-05-07T09:37:27;14.20;99.10
8463;DHT22;4268;52.506;13.462;2023-05-07T09:39:53;14.40;99.30
8463;DHT22;4268;52.506;13.462;2023-05-07T09:42:24;14.40;98.80
8463;DHT22;4268;52.506;13.462;2023-05-07T09:44:50;14.20;98.80
8463;DHT22;4268;52.506;13.462;2023-05-07T09:47:19;14.10;99.20
8463;DHT22;4268;52.506;13.462;2023-05-07T09:49:47;14.20;99.10
8463;DHT22;4268;52.506;13.462;2023-05-07T09:52:13;14.20;98.70
8463;DHT22;4268;52.506;13.462;2023-05-07T09:54:40;13.80;98.90
8463;DHT22;4268;52.506;13.462;2023-05-07T09:57:10;13.90;99.30
8463;DHT22;4268;52.506;13.462;2023-05-07T09:59:37;14.10;98.70
8463;DHT22;4268;52.506;13.462;2023-05-07T10:02:04;14.30;98.70
8463;DHT22;4268;52.506;13.462;2023-05-07T10:04:31;14.60;98.90
8463;DHT22;4268;52.506;13.462;2023-05-07T10:06:57;14.80;98.10
8463;DHT22;4268;52.506;13.462;2023-05-07T10:09:24;14.80;98.10
8463;DHT22;4268;52.506;13.462;2023-05-07T10:11:51;14.90;97.70
8463;DHT22;4268;52.506;13.462;2023-05-07T10:14:17;14.90;97.50
8463;DHT22;4268;52.506;13.462;2023-05-07T10:16:43;14.90;97.20
8463;DHT22;4268;52.506;13.462;2023-05-07T10:19:09;14.80;97.20
8463;DHT22;4268;52.506;13.462;2023-05-07T10:21:37;14.60;97.10
8463;DHT22;4268;52.506;13.462;2023-05-07T10:24:12;14.70;96.80
8463;DHT22;4268;52.506;13.462;2023-05-07T10:26:44;14.90;96.60
8463;DHT22;4268;52.506;13.462;2023-05-07T10:29:33;15.20;96.80
8463;DHT22;4268;52.506;13.462;2023-05-07T10:34:45;15.10;96.40
8463;DHT22;4268;52.506;13.462;2023-05-07T10:37:12;15.00;96.60
8463;DHT22;4268;52.506;13.462;2023-05-07T10:39:38;14.80;96.80
8463;DHT22;4268;52.506;13.462;2023-05-07T10:42:10;14.80;96.80
8463;DHT22;4268;52.506;13.462;2023-05-07T10:44:36;14.90;96.80
8463;DHT22;4268;52.506;13.462;2023-05-07T10:47:13;14.80;96.80
8463;DHT22;4268;52.506;13.462;2023-05-07T10:54:38;14.70;96.00
8463;DHT22;4268;52.506;13.462;2023-05-07T10:57:36;14.70;96.20
8463;DHT22;4268;52.506;13.462;2023-05-07T11:05:26;15.10;95.10
8463;DHT22;4268;52.506;13.462;2023-05-07T11:07:59;15.00;95.50
8463;DHT22;4268;52.506;13.462;2023-05-07T11:13:12;14.90;95.10
8463;DHT22;4268;52.506;13.462;2023-05-07T11:15:44;15.00;95.50
8463;DHT22;4268;52.506;13.462;2023-05-07T11:18:11;15.10;95.10
8463;DHT22;4268;52.506;13.462;2023-05-07T11:20:52;15.20;94.90
8463;DHT22;4268;52.506;13.462;2023-05-07T11:26:06;15.40;95.40
8463;DHT22;4268;52.506;13.462;2023-05-07T11:28:37;15.60;95.40
8463;DHT22;4268;52.506;13.462;2023-05-07T11:31:04;15.80;94.50
8463;DHT22;4268;52.506;13.462;2023-05-07T11:33:32;15.90;95.00
8463;DHT22;4268;52.506;13.462;2023-05-07T11:35:59;16.00;94.30
8463;DHT22;4268;52.506;13.462;2023-05-07T11:38:25;15.80;93.90
8463;DHT22;4268;52.506;13.462;2023-05-07T11:40:56;15.60;94.10
8463;DHT22;4268;52.506;13.462;2023-05-07T11:43:22;15.50;94.30
8463;DHT22;4268;52.506;13.462;2023-05-07T11:45:48;15.20;94.60
8463;DHT22;4268;52.506;13.462;2023-05-07T11:48:15;15.30;94.80
8463;DHT22;4268;52.506;13.462;2023-05-07T11:51:00;15.40;95.10
8463;DHT22;4268;52.506;13.462;2023-05-07T11:53:26;15.40;94.50
8463;DHT22;4268;52.506;13.462;2023-05-07T11:55:53;15.40;94.50
8463;DHT22;4268;52.506;13.462;2023-05-07T11:58:24;15.30;94.10
8463;DHT22;4268;52.506;13.462;2023-05-07T12:00:50;15.50;94.30
8463;DHT22;4268;52.506;13.462;2023-05-07T12:03:16;15.50;93.90
8463;DHT22;4268;52.506;13.462;2023-05-07T12:05:43;15.50;94.10
8463;DHT22;4268;52.506;13.462;2023-05-07T12:08:17;15.50;93.70
8463;DHT22;4268;52.506;13.462;2023-05-07T12:10:44;15.50;94.10
8463;DHT22;4268;52.506;13.462;2023-05-07T12:13:21;15.80;93.80
8463;DHT22;4268;52.506;13.462;2023-05-07T12:15:53;15.90;93.30
8463;DHT22;4268;52.506;13.462;2023-05-07T12:18:19;15.90;93.20
8463;DHT22;4268;52.506;13.462;2023-05-07T12:20:46;15.70;93.10
8463;DHT22;4268;52.506;13.462;2023-05-07T12:23:11;15.60;93.20
8463;DHT22;4268;52.506;13.462;2023-05-07T12:25:38;15.40;93.40
8463;DHT22;4268;52.506;13.462;2023-05-07T12:28:05;15.20;93.80
8463;DHT22;4268;52.506;13.462;2023-05-07T12:30:38;15.20;94.00
8463;DHT22;4268;52.506;13.462;2023-05-07T12:33:04;15.20;93.30
8463;DHT22;4268;52.506;13.462;2023-05-07T12:35:31;15.40;93.10
8463;DHT22;4268;52.506;13.462;2023-05-07T12:37:57;15.70;93.10
8463;DHT22;4268;52.506;13.462;2023-05-07T12:40:46;15.90;92.60
8463;DHT22;4268;52.506;13.462;2023-05-07T12:43:18;16.10;92.60
8463;DHT22;4268;52.506;13.462;2023-05-07T12:45:46;16.30;92.50
8463;DHT22;4268;52.506;13.462;2023-05-07T12:48:12;16.50;91.70
8463;DHT22;4268;52.506;13.462;2023-05-07T12:50:38;16.50;92.00
8463;DHT22;4268;52.506;13.462;2023-05-07T12:53:04;16.40;92.00
8463;DHT22;4268;52.506;13.462;2023-05-07T12:55:41;16.30;91.80
8463;DHT22;4268;52.506;13.462;2023-05-07T12:58:06;16.10;91.70
8463;DHT22;4268;52.506;13.462;2023-05-07T13:00:38;16.00;92.20
8463;DHT22;4268;52.506;13.462;2023-05-07T13:03:04;15.80;91.40
8463;DHT22;4268;52.506;13.462;2023-05-07T13:05:31;15.90;91.50
8463;DHT22;4268;52.506;13.462;2023-05-07T13:07:57;15.90;91.40
8463;DHT22;4268;52.506;13.462;2023-05-07T13:10:23;16.00;90.70
8463;DHT22;4268;52.506;13.462;2023-05-07T13:12:49;16.10;90.50
8463;DHT22;4268;52.506;13.462;2023-05-07T13:15:15;16.30;90.50
8463;DHT22;4268;52.506;13.462;2023-05-07T13:17:41;16.50;90.60
8463;DHT22;4268;52.506;13.462;2023-05-07T13:20:07;16.60;90.20
8463;DHT22;4268;52.506;13.462;2023-05-07T13:22:33;16.40;90.50
8463;DHT22;4268;52.506;13.462;2023-05-07T13:24:59;16.30;91.00
8463;DHT22;4268;52.506;13.462;2023-05-07T13:27:24;16.20;90.80
8463;DHT22;4268;52.506;13.462;2023-05-07T13:29:50;16.40;91.10
8463;DHT22;4268;52.506;13.462;2023-05-07T13:32:15;16.60;91.00
8463;DHT22;4268;52.506;13.462;2023-05-07T13:34:41;16.80;90.40
8463;DHT22;4268;52.506;13.462;2023-05-07T13:37:06;16.70;90.50
8463;DHT22;4268;52.506;13.462;2023-05-07T13:39:33;16.60;90.60
8463;DHT22;4268;52.506;13.462;2023-05-07T13:41:58;17.60;91.00
8463;DHT22;4268;52.506;13.462;2023-05-07T13:44:24;16.50;90.20
8463;DHT22;4268;52.506;13.462;2023-05-07T13:46:49;16.60;90.20
8463;DHT22;4268;52.506;13.462;2023-05-07T13:49:15;16.60;90.20
8463;DHT22;4268;52.506;13.462;2023-05-07T13:51:40;16.50;90.20
8463;DHT22;4268;52.506;13.462;2023-05-07T13:54:06;16.50;90.00
8463;DHT22;4268;52.506;13.462;2023-05-07T13:56:31;16.40;90.20
8463;DHT22;4268;52.506;13.462;2023-05-07T13:59:00;16.50;90.30
8463;DHT22;4268;52.506;13.462;2023-05-07T14:01:26;16.30;90.40
8463;DHT22;4268;52.506;13.462;2023-05-07T14:03:51;16.20;90.80
8463;DHT22;4268;52.506;13.462;2023-05-07T14:06:17;16.10;90.70
8463;DHT22;4268;52.506;13.462;2023-05-07T14:08:42;16.00;90.90
8463;DHT22;4268;52.506;13.462;2023-05-07T14:11:08;16.00;91.00
8463;DHT22;4268;52.506;13.462;2023-05-07T14:13:33;16.00;90.70
8463;DHT22;4268;52.506;13.462;2023-05-07T14:15:59;16.00;90.70
8463;DHT22;4268;52.506;13.462;2023-05-07T14:18:26;15.90;90.40
8463;DHT22;4268;52.506;13.462;2023-05-07T14:20:51;15.80;90.70
8463;DHT22;4268;52.506;13.462;2023-05-07T14:23:17;16.80;91.40
8463;DHT22;4268;52.506;13.462;2023-05-07T14:25:50;15.60;90.70
8463;DHT22;4268;52.506;13.462;2023-05-07T14:28:16;15.60;90.90
8463;DHT22;4268;52.506;13.462;2023-05-07T14:30:41;15.50;90.70
8463;DHT22;4268;52.506;13.462;2023-05-07T14:33:07;15.50;90.90
8463;DHT22;4268;52.506;13.462;2023-05-07T14:35:32;15.50;90.90
8463;DHT22;4268;52.506;13.462;2023-05-07T14:37:58;15.50;90.50
8463;DHT22;4268;52.506;13.462;2023-05-07T14:40:23;15.50;90.20
8463;DHT22;4268;52.506;13.462;2023-05-07T14:42:49;15.50;90.40
8463;DHT22;4268;52.506;13.462;2023-05-07T14:45:14;15.60;90.30
8463;DHT22;4268;52.506;13.462;2023-05-07T14:47:40;15.70;90.00
8463;DHT22;4268;52.506;13.462;2023-05-07T14:50:05;15.80;90.10
8463;DHT22;4268;52.506;13.462;2023-05-07T14:52:31;16.20;90.00
8463;DHT22;4268;52.506;13.462;2023-05-07T14:54:56;16.40;89.40
8463;DHT22;4268;52.506;13.462;2023-05-07T14:57:22;16.50;89.90
8463;DHT22;4268;52.506;13.462;2023-05-07T14:59:47;16.60;89.40
8463;DHT22;4268;52.506;13.462;2023-05-07T15:02:13;16.70;89.00
8463;DHT22;4268;52.506;13.462;2023-05-07T15:04:39;16.80;89.50
8463;DHT22;4268;52.506;13.462;2023-05-07T15:07:14;16.80;88.40
8463;DHT22;4268;52.506;13.462;2023-05-07T15:09:43;16.80;88.00
8463;DHT22;4268;52.506;13.462;2023-05-07T15:12:09;16.70;88.80
8463;DHT22;4268;52.506;13.462;2023-05-07T15:14:34;16.50;89.20
8463;DHT22;4268;52.506;13.462;2023-05-07T15:17:00;16.40;89.10
8463;DHT22;4268;52.506;13.462;2023-05-07T15:19:26;16.20;89.90
8463;DHT22;4268;52.506;13.462;2023-05-07T15:21:58;16.10;90.30
8463;DHT22;4268;52.506;13.462;2023-05-07T15:24:28;16.10;90.20
8463;DHT22;4268;52.506;13.462;2023-05-07T15:26:53;16.10;90.30
8463;DHT22;4268;52.506;13.462;2023-05-07T15:29:18;16.10;90.30
8463;DHT22;4268;52.506;13.462;2023-05-07T15:31:44;16.00;90.50
8463;DHT22;4268;52.506;13.462;2023-05-07T15:34:09;16.00;90.30
8463;DHT22;4268;52.506;13.462;2023-05-07T15:36:35;16.00;90.30
8463;DHT22;4268;52.506;13.462;2023-05-07T15:39:02;16.00;90.70
8463;DHT22;4268;52.506;13.462;2023-05-07T15:41:28;15.70;88.20
8463;DHT22;4268;52.506;13.462;2023-05-07T15:43:54;15.80;88.80
8463;DHT22;4268;52.506;13.462;2023-05-07T15:46:21;15.70;88.90
8463;DHT22;4268;52.506;13.462;2023-05-07T15:48:46;15.50;89.10
8463;DHT22;4268;52.506;13.462;2023-05-07T15:51:12;15.50;89.70
8463;DHT22;4268;52.506;13.462;2023-05-07T15:53:38;15.60;90.00
8463;DHT22;4268;52.506;13.462;2023-05-07T15:56:05;15.60;89.60
8463;DHT22;4268;52.506;13.462;2023-05-07T15:58:31;15.70;89.10
8463;DHT22;4268;52.506;13.462;2023-05-07T16:00:56;15.80;88.40
8463;DHT22;4268;52.506;13.462;2023-05-07T16:03:22;15.80;88.60
8463;DHT22;4268;52.506;13.462;2023-05-07T16:05:48;15.90;88.60
8463;DHT22;4268;52.506;13.462;2023-05-07T16:08:13;16.00;88.90